createdAt,value
2023-02-09T00:01:10.696Z,6.82
2023-02-09T00:03:38.139Z,6.54
2023-02-09T00:06:06.506Z,7.31
2023-02-09T00:08:35.192Z,7.52
2023-02-09T00:11:05.911Z,6.66
2023-02-09T00:13:34.568Z,6.83
2023-02-09T00:16:02.598Z,6.14
2023-02-09T00:18:31.124Z,6.22
2023-02-09T00:20:59.032Z,6.60
2023-02-09T00:23:27.165Z,5.96
2023-02-09T00:25:54.347Z,5.61
2023-02-09T00:28:21.738Z,5.46
2023-02-09T00:30:49.873Z,4.89
2023-02-09T00:33:16.650Z,4.63
2023-02-09T00:35:44.152Z,5.37
2023-02-09T00:38:12.462Z,5.08
2023-02-09T00:40:40.118Z,5.25
2023-02-09T00:43:08.023Z,5.39
2023-02-09T00:45:35.242Z,5.61
2023-02-09T00:48:03.691Z,5.35
2023-02-09T00:50:30.637Z,5.09
2023-02-09T00:52:57.416Z,5.48
2023-02-09T00:55:24.233Z,5.34
2023-02-09T00:57:50.991Z,5.86
2023-02-09T01:00:18.013Z,5.65
2023-02-09T01:02:44.783Z,5.73
2023-02-09T01:05:13.004Z,5.83
2023-02-09T01:07:39.765Z,6.26
2023-02-09T01:10:07.468Z,5.86
2023-02-09T01:12:34.350Z,5.01
2023-02-09T01:15:01.202Z,4.64
2023-02-09T01:17:28.274Z,4.45
2023-02-09T01:19:55.700Z,4.71
2023-02-09T01:22:23.882Z,4.71
2023-02-09T01:24:50.778Z,5.39
2023-02-09T01:27:17.973Z,6.45
2023-02-09T01:29:44.977Z,6.11
2023-02-09T01:32:12.005Z,5.64
2023-02-09T01:34:38.892Z,5.39
2023-02-09T01:37:05.821Z,6.53
2023-02-09T01:39:34.012Z,6.42
2023-02-09T01:42:00.934Z,6.44
2023-02-09T01:45:05.866Z,6.92
2023-02-09T01:47:36.317Z,8.06
2023-02-09T01:50:03.589Z,8.09
2023-02-09T01:52:30.614Z,9.40
2023-02-09T01:55:01.202Z,9.00
2023-02-09T01:57:32.838Z,9.14
2023-02-09T02:00:04.973Z,8.25
2023-02-09T02:02:32.119Z,7.97
2023-02-09T02:04:59.541Z,7.38
2023-02-09T02:07:32.294Z,7.46
2023-02-09T02:10:02.224Z,7.77
2023-02-09T02:12:29.620Z,7.90
2023-02-09T02:14:56.425Z,7.73
2023-02-09T02:17:36.616Z,7.06
2023-02-09T02:20:33.130Z,7.67
2023-02-09T02:23:14.281Z,8.22
2023-02-09T02:26:20.472Z,8.80
2023-02-09T02:29:16.247Z,7.06
2023-02-09T02:31:58.450Z,7.49
2023-02-09T02:34:38.364Z,6.81
2023-02-09T02:37:15.996Z,7.53
2023-02-09T02:39:54.226Z,6.36
2023-02-09T02:42:25.088Z,6.43
2023-02-09T02:45:01.555Z,5.38
2023-02-09T02:47:33.138Z,4.82
2023-02-09T02:50:06.073Z,5.03
2023-02-09T02:52:32.833Z,5.85
2023-02-09T02:55:05.015Z,5.97
2023-02-09T02:57:36.216Z,5.45
2023-02-09T03:00:08.543Z,5.94
2023-02-09T03:02:40.978Z,6.16
2023-02-09T03:05:09.821Z,7.40
2023-02-09T03:07:36.548Z,7.15
2023-02-09T03:10:21.855Z,6.38
2023-02-09T03:12:58.120Z,5.88
2023-02-09T03:15:32.504Z,5.14
2023-02-09T03:18:10.617Z,5.67
2023-02-09T03:20:43.681Z,5.20
2023-02-09T03:23:16.455Z,5.59
2023-02-09T03:25:48.545Z,5.75
2023-02-09T03:28:21.917Z,5.70
2023-02-09T03:30:49.886Z,5.15
2023-02-09T03:33:20.349Z,4.90
2023-02-09T03:35:50.243Z,6.07
2023-02-09T03:38:17.596Z,5.80
2023-02-09T03:40:45.215Z,4.41
2023-02-09T03:43:12.176Z,3.66
2023-02-09T03:45:39.103Z,4.59
2023-02-09T03:48:06.066Z,4.47
2023-02-09T03:50:35.512Z,5.11
2023-02-09T03:53:03.441Z,3.54
2023-02-09T03:55:30.181Z,3.83
2023-02-09T03:57:56.935Z,5.83
2023-02-09T04:00:23.759Z,3.90
2023-02-09T04:02:50.549Z,5.11
2023-02-09T04:05:17.500Z,4.89
2023-02-09T04:07:45.796Z,4.67
2023-02-09T04:10:12.538Z,3.69
2023-02-09T04:12:39.242Z,4.17
2023-02-09T04:15:06.745Z,4.07
2023-02-09T04:17:33.605Z,3.53
2023-02-09T04:20:00.347Z,3.96
2023-02-09T04:22:27.129Z,4.32
2023-02-09T04:24:55.335Z,3.61
2023-02-09T04:27:22.066Z,3.09
2023-02-09T04:29:48.880Z,3.29
2023-02-09T04:32:15.594Z,4.26
2023-02-09T04:34:42.307Z,3.48
2023-02-09T04:37:09.033Z,3.11
2023-02-09T04:39:35.810Z,3.63
2023-02-09T04:42:03.955Z,2.94
2023-02-09T04:44:30.691Z,3.03
2023-02-09T04:46:57.579Z,2.94
2023-02-09T04:49:24.277Z,3.42
2023-02-09T04:51:51.040Z,3.40
2023-02-09T04:54:17.809Z,3.20
2023-02-09T04:56:44.541Z,3.88
2023-02-09T04:59:12.727Z,4.61
2023-02-09T05:01:39.448Z,4.19
2023-02-09T05:04:06.258Z,3.35
2023-02-09T05:06:33.027Z,4.46
2023-02-09T05:08:59.766Z,4.58
2023-02-09T05:11:26.507Z,3.73
2023-02-09T05:13:53.362Z,4.80
2023-02-09T05:16:21.645Z,5.56
2023-02-09T05:18:48.449Z,4.87
2023-02-09T05:21:15.163Z,5.07
2023-02-09T05:23:42.062Z,4.73
2023-02-09T05:26:09.328Z,4.28
2023-02-09T05:28:36.523Z,3.92
2023-02-09T05:31:03.458Z,3.40
2023-02-09T05:33:31.628Z,4.05
2023-02-09T05:35:58.364Z,4.61
2023-02-09T05:38:25.169Z,4.19
2023-02-09T05:40:52.073Z,4.41
2023-02-09T05:43:18.836Z,5.26
2023-02-09T05:45:46.128Z,5.09
2023-02-09T05:48:12.959Z,4.48
2023-02-09T05:50:41.159Z,5.92
2023-02-09T05:53:08.414Z,5.03
2023-02-09T05:55:35.303Z,4.80
2023-02-09T05:58:02.056Z,4.59
2023-02-09T06:00:28.774Z,3.95
2023-02-09T06:02:55.646Z,3.96
2023-02-09T06:05:22.844Z,4.74
2023-02-09T06:07:51.172Z,4.29
2023-02-09T06:10:18.299Z,4.51
2023-02-09T06:12:45.394Z,5.18
2023-02-09T06:15:12.868Z,6.81
2023-02-09T06:17:39.655Z,6.43
2023-02-09T06:20:07.329Z,5.09
2023-02-09T06:22:34.338Z,5.49
2023-02-09T06:25:03.677Z,4.50
2023-02-09T06:27:30.497Z,7.49
2023-02-09T06:29:57.223Z,5.64
2023-02-09T06:32:23.982Z,5.12
2023-02-09T06:34:51.061Z,4.39
2023-02-09T06:37:17.866Z,5.57
2023-02-09T06:39:44.606Z,5.58
2023-02-09T06:42:12.785Z,4.79
2023-02-09T06:44:39.664Z,4.21
2023-02-09T06:47:06.430Z,4.33
2023-02-09T06:49:33.216Z,4.96
2023-02-09T06:52:00.156Z,4.16
2023-02-09T06:54:27.158Z,4.64
2023-02-09T06:56:54.173Z,4.93
2023-02-09T06:59:22.482Z,4.33
2023-02-09T07:01:51.249Z,4.48
2023-02-09T07:04:19.508Z,5.29
2023-02-09T07:06:46.229Z,5.92
2023-02-09T07:09:13.079Z,10.22
2023-02-09T07:11:39.917Z,7.01
2023-02-09T07:14:06.645Z,8.49
2023-02-09T07:16:34.764Z,8.55
2023-02-09T07:19:01.558Z,6.53
2023-02-09T07:21:29.697Z,6.24
2023-02-09T07:23:59.167Z,16.89
2023-02-09T07:26:26.029Z,25.60
2023-02-09T07:28:54.270Z,19.94
2023-02-09T07:31:21.758Z,15.04
2023-02-09T07:33:50.048Z,11.65
2023-02-09T07:36:17.989Z,10.45
2023-02-09T07:38:45.561Z,8.81
2023-02-09T07:41:15.615Z,8.37
2023-02-09T07:43:42.739Z,5.88
2023-02-09T07:46:11.002Z,4.18
2023-02-09T07:48:38.011Z,3.98
2023-02-09T07:51:13.132Z,4.91
2023-02-09T07:53:40.077Z,4.21
2023-02-09T07:56:07.557Z,4.07
2023-02-09T07:58:34.636Z,3.96
2023-02-09T08:01:04.905Z,3.19
2023-02-09T08:03:34.281Z,6.42
2023-02-09T08:06:04.216Z,5.72
2023-02-09T08:08:32.331Z,4.79
2023-02-09T08:11:01.186Z,5.60
2023-02-09T08:13:32.374Z,5.50
2023-02-09T08:16:02.774Z,4.77
2023-02-09T08:18:34.432Z,4.55
2023-02-09T08:21:01.370Z,4.51
2023-02-09T08:23:30.889Z,3.67
2023-02-09T08:26:02.069Z,3.17
2023-02-09T08:28:42.771Z,3.30
2023-02-09T08:31:10.560Z,3.97
2023-02-09T08:33:37.668Z,3.02
2023-02-09T08:36:05.249Z,3.41
2023-02-09T08:38:32.008Z,4.19
2023-02-09T08:41:02.156Z,3.68
2023-02-09T08:43:28.951Z,3.49
2023-02-09T08:45:55.776Z,3.42
2023-02-09T08:48:22.545Z,2.93
2023-02-09T08:50:49.331Z,3.11
2023-02-09T08:53:16.462Z,2.81
2023-02-09T08:55:43.272Z,3.52
2023-02-09T08:58:11.776Z,4.58
2023-02-09T09:00:38.517Z,4.84
2023-02-09T09:03:05.721Z,4.19
2023-02-09T09:05:34.295Z,4.79
2023-02-09T09:08:01.012Z,3.92
2023-02-09T09:10:27.864Z,4.67
2023-02-09T09:12:54.604Z,4.79
2023-02-09T09:15:22.712Z,3.90
2023-02-09T09:17:49.485Z,3.89
2023-02-09T09:20:16.535Z,3.99
2023-02-09T09:22:43.649Z,4.14
2023-02-09T09:25:10.484Z,5.44
2023-02-09T09:27:37.452Z,4.57
2023-02-09T09:30:05.325Z,5.35
2023-02-09T09:32:33.634Z,5.84
2023-02-09T09:35:00.497Z,5.69
2023-02-09T09:37:27.336Z,4.82
2023-02-09T09:39:54.124Z,4.35
2023-02-09T09:42:25.087Z,3.84
2023-02-09T09:44:52.808Z,4.76
2023-02-09T09:47:24.877Z,4.85
2023-02-09T09:49:53.046Z,4.35
2023-02-09T09:52:32.074Z,4.80
2023-02-09T09:55:00.668Z,4.15
2023-02-09T09:57:29.710Z,4.06
2023-02-09T09:59:57.566Z,3.21
2023-02-09T10:02:29.629Z,3.32
2023-02-09T10:05:02.859Z,3.56
2023-02-09T10:07:32.042Z,3.26
2023-02-09T10:10:04.235Z,4.50
2023-02-09T10:12:36.192Z,5.36
2023-02-09T10:15:25.651Z,4.92
2023-02-09T10:17:52.501Z,5.00
2023-02-09T10:20:40.361Z,5.14
2023-02-09T10:23:15.287Z,4.12
2023-02-09T10:25:52.729Z,4.31
2023-02-09T10:28:21.560Z,5.18
2023-02-09T10:30:51.868Z,4.58
2023-02-09T10:33:19.040Z,5.11
2023-02-09T10:35:50.849Z,6.15
2023-02-09T10:38:20.025Z,5.08
2023-02-09T10:40:47.245Z,5.33
2023-02-09T10:43:23.505Z,5.17
2023-02-09T10:45:55.530Z,4.82
2023-02-09T10:48:24.256Z,5.60
2023-02-09T10:50:54.914Z,5.29
2023-02-09T10:53:25.866Z,4.63
2023-02-09T10:56:00.949Z,4.95
2023-02-09T10:58:30.032Z,5.17
2023-02-09T11:01:06.503Z,5.19
2023-02-09T11:03:33.704Z,4.94
2023-02-09T11:06:09.829Z,4.90
2023-02-09T11:08:43.663Z,4.99
2023-02-09T11:11:23.114Z,4.23
2023-02-09T11:13:49.859Z,5.53
2023-02-09T11:16:25.873Z,5.41
2023-02-09T11:18:59.177Z,5.58
2023-02-09T11:21:39.277Z,5.28
2023-02-09T11:24:12.056Z,5.53
2023-02-09T11:26:46.990Z,4.93
2023-02-09T11:29:24.294Z,4.49
2023-02-09T11:32:11.890Z,6.13
2023-02-09T11:35:04.158Z,6.96
2023-02-09T11:37:41.557Z,5.99
2023-02-09T11:40:21.910Z,5.21
2023-02-09T11:42:55.561Z,5.22
2023-02-09T11:45:29.369Z,6.26
2023-02-09T11:48:03.612Z,6.67
2023-02-09T11:50:35.869Z,6.03
2023-02-09T11:53:10.446Z,5.98
2023-02-09T11:55:42.745Z,4.75
2023-02-09T11:58:24.154Z,4.90
2023-02-09T12:01:13.364Z,5.26
2023-02-09T12:03:49.908Z,6.29
2023-02-09T12:06:17.664Z,6.71
2023-02-09T12:08:58.702Z,7.00
2023-02-09T12:11:41.802Z,5.42
2023-02-09T12:14:27.855Z,5.89
2023-02-09T12:17:00.360Z,5.87
2023-02-09T12:19:34.584Z,7.23
2023-02-09T12:25:12.917Z,6.94
2023-02-09T12:27:41.072Z,5.78
2023-02-09T12:30:41.085Z,5.80
2023-02-09T12:33:17.398Z,6.06
2023-02-09T12:35:57.217Z,6.11
2023-02-09T12:38:24.312Z,8.00
2023-02-09T12:41:04.081Z,10.18
2023-02-09T12:43:31.819Z,8.98
2023-02-09T12:46:43.672Z,7.99
2023-02-09T12:49:19.545Z,7.76
2023-02-09T12:52:13.161Z,7.46
2023-02-09T12:54:44.108Z,7.17
2023-02-09T12:57:53.644Z,6.63
2023-02-09T13:00:51.318Z,6.55
2023-02-09T13:03:23.234Z,6.74
2023-02-09T13:05:50.257Z,6.45
2023-02-09T13:08:29.655Z,6.09
2023-02-09T13:11:00.582Z,6.57
2023-02-09T13:13:35.297Z,7.26
2023-02-09T13:16:33.251Z,6.27
2023-02-09T13:19:11.592Z,7.51
2023-02-09T13:21:46.848Z,7.31
2023-02-09T13:24:16.226Z,8.12
2023-02-09T13:26:50.189Z,8.20
2023-02-09T13:29:21.206Z,6.08
2023-02-09T13:31:59.293Z,6.69
2023-02-09T13:34:34.401Z,8.15
2023-02-09T13:37:12.793Z,7.69
2023-02-09T13:39:39.937Z,7.07
2023-02-09T13:42:22.142Z,6.69
2023-02-09T13:44:52.219Z,6.27
2023-02-09T13:47:21.092Z,6.08
2023-02-09T13:49:59.522Z,7.51
2023-02-09T13:52:31.724Z,7.95
2023-02-09T13:55:10.828Z,7.75
2023-02-09T13:57:40.603Z,8.08
2023-02-09T14:00:15.207Z,7.84
2023-02-09T14:02:47.968Z,6.96
2023-02-09T14:05:26.183Z,6.95
2023-02-09T14:07:53.668Z,7.01
2023-02-09T14:10:21.244Z,5.57
2023-02-09T14:12:53.309Z,6.28
2023-02-09T14:15:24.116Z,6.33
2023-02-09T14:17:53.981Z,7.50
2023-02-09T14:20:23.742Z,7.02
2023-02-09T14:22:56.833Z,6.69
2023-02-09T14:25:24.813Z,7.79
2023-02-09T14:27:51.980Z,8.30
2023-02-09T14:30:21.664Z,7.98
2023-02-09T14:32:54.023Z,7.90
2023-02-09T14:35:22.353Z,6.68
2023-02-09T14:37:50.802Z,7.17
2023-02-09T14:40:27.870Z,5.40
2023-02-09T14:43:02.967Z,6.17
2023-02-09T14:45:38.448Z,5.99
2023-02-09T14:48:22.531Z,6.66
2023-02-09T14:50:53.264Z,7.27
2023-02-09T14:53:21.437Z,6.37
2023-02-09T14:55:48.798Z,6.75
2023-02-09T14:58:23.200Z,6.80
2023-02-09T15:00:51.060Z,6.09
2023-02-09T15:03:17.832Z,5.83
2023-02-09T15:05:47.251Z,5.64
2023-02-09T15:08:16.872Z,5.20
2023-02-09T15:10:46.708Z,6.31
2023-02-09T15:13:15.394Z,6.50
2023-02-09T15:15:42.885Z,7.91
2023-02-09T15:18:17.651Z,7.71
2023-02-09T15:20:45.862Z,8.97
2023-02-09T15:23:12.749Z,7.53
2023-02-09T15:25:40.712Z,6.74
2023-02-09T15:28:14.401Z,6.51
2023-02-09T15:30:41.231Z,6.81
2023-02-09T15:33:10.763Z,7.34
2023-02-09T15:35:38.769Z,7.08
2023-02-09T15:38:10.129Z,7.16
2023-02-09T15:40:40.711Z,6.09
2023-02-09T15:43:16.203Z,7.28
2023-02-09T15:45:45.300Z,6.86
2023-02-09T15:48:13.047Z,6.89
2023-02-09T15:50:42.244Z,6.69
2023-02-09T15:53:12.891Z,7.15
2023-02-09T15:55:40.186Z,8.07
2023-02-09T15:58:12.854Z,7.73
2023-02-09T16:00:39.661Z,7.70
2023-02-09T16:03:13.735Z,7.37
2023-02-09T16:08:16.429Z,8.06
2023-02-09T16:10:43.297Z,7.29
2023-02-09T16:13:11.638Z,6.74
2023-02-09T16:15:38.359Z,7.53
2023-02-09T16:18:05.163Z,7.43
2023-02-09T16:20:32.002Z,7.11
2023-02-09T16:23:04.037Z,6.24
2023-02-09T16:25:37.015Z,6.40
2023-02-09T16:28:03.985Z,6.78
2023-02-09T16:30:31.814Z,6.88
2023-02-09T16:32:58.631Z,8.68
2023-02-09T16:35:25.400Z,7.78
2023-02-09T16:37:53.398Z,7.89
2023-02-09T16:40:26.832Z,7.72
2023-02-09T16:42:56.491Z,7.30
2023-02-09T16:45:24.108Z,7.81
2023-02-09T16:47:53.069Z,7.47
2023-02-09T16:50:25.400Z,8.41
2023-02-09T16:52:54.540Z,7.38
2023-02-09T16:55:25.219Z,7.13
2023-02-09T16:57:52.297Z,9.60
2023-02-09T17:00:21.726Z,7.42
2023-02-09T17:02:52.045Z,7.71
2023-02-09T17:05:21.606Z,10.87
2023-02-09T17:07:55.035Z,9.24
2023-02-09T17:10:25.069Z,8.40
2023-02-09T17:12:53.629Z,7.94
2023-02-09T17:15:30.529Z,8.27
2023-02-09T17:18:02.380Z,8.37
2023-02-09T17:20:35.134Z,7.34
2023-02-09T17:23:01.877Z,7.81
2023-02-09T17:25:28.729Z,10.99
2023-02-09T17:27:55.554Z,9.27
2023-02-09T17:30:23.705Z,8.18
2023-02-09T17:32:58.307Z,8.74
2023-02-09T17:35:48.839Z,8.25
2023-02-09T17:38:20.513Z,7.45
2023-02-09T17:40:47.283Z,7.74
2023-02-09T17:43:14.004Z,6.92
2023-02-09T17:45:42.340Z,7.43
2023-02-09T17:48:09.251Z,6.76
2023-02-09T17:50:35.988Z,6.20
2023-02-09T17:53:02.828Z,7.15
2023-02-09T17:55:29.873Z,6.31
2023-02-09T17:57:57.993Z,6.20
2023-02-09T18:00:25.916Z,6.61
2023-02-09T18:02:54.347Z,8.09
2023-02-09T18:05:23.919Z,8.05
2023-02-09T18:07:51.383Z,6.11
2023-02-09T18:10:19.790Z,4.79
2023-02-09T18:12:47.337Z,6.63
2023-02-09T18:15:22.053Z,9.88
2023-02-09T18:17:49.741Z,13.87
2023-02-09T18:20:19.877Z,13.67
2023-02-09T18:22:46.666Z,13.28
2023-02-09T18:25:19.369Z,9.59
2023-02-09T18:27:46.356Z,7.64
2023-02-09T18:30:14.163Z,6.99
2023-02-09T18:32:41.090Z,6.48
2023-02-09T18:35:08.284Z,7.86
2023-02-09T18:37:36.411Z,6.89
2023-02-09T18:40:03.646Z,6.32
2023-02-09T18:42:30.499Z,5.65
2023-02-09T18:44:57.232Z,4.34
2023-02-09T18:47:24.055Z,4.96
2023-02-09T18:49:50.761Z,6.25
2023-02-09T18:52:17.527Z,4.88
2023-02-09T18:54:45.641Z,4.70
2023-02-09T18:57:13.104Z,5.18
2023-02-09T18:59:39.901Z,4.09
2023-02-09T19:02:06.629Z,4.03
2023-02-09T19:04:33.368Z,3.99
2023-02-09T19:07:00.086Z,3.89
2023-02-09T19:09:26.888Z,3.66
2023-02-09T19:11:54.991Z,4.05
2023-02-09T19:14:21.880Z,5.56
2023-02-09T19:16:48.707Z,8.20
2023-02-09T19:19:15.470Z,6.33
2023-02-09T19:21:42.188Z,5.41
2023-02-09T19:24:08.942Z,5.32
2023-02-09T19:26:35.672Z,5.28
2023-02-09T19:29:04.051Z,6.18
2023-02-09T19:31:30.951Z,5.24
2023-02-09T19:33:57.821Z,6.41
2023-02-09T19:36:25.035Z,6.73
2023-02-09T19:38:51.878Z,6.04
2023-02-09T19:41:18.669Z,5.18
2023-02-09T19:43:45.525Z,4.50
2023-02-09T19:46:13.710Z,4.11
2023-02-09T19:48:40.787Z,4.21
2023-02-09T19:51:08.128Z,4.36
2023-02-09T19:53:34.950Z,4.47
2023-02-09T19:56:01.786Z,5.05
2023-02-09T19:58:29.795Z,3.83
2023-02-09T20:00:57.039Z,5.40
2023-02-09T20:03:25.342Z,4.83
2023-02-09T20:05:52.097Z,3.69
2023-02-09T20:08:19.914Z,3.52
2023-02-09T20:10:47.390Z,3.49
2023-02-09T20:13:15.295Z,3.91
2023-02-09T20:15:43.516Z,7.20
2023-02-09T20:18:12.015Z,5.60
2023-02-09T20:20:42.034Z,6.07
2023-02-09T20:23:09.561Z,5.84
2023-02-09T20:25:36.444Z,5.89
2023-02-09T20:28:03.250Z,5.54
2023-02-09T20:30:31.231Z,5.66
2023-02-09T20:32:58.057Z,6.78
2023-02-09T20:35:24.835Z,7.19
2023-02-09T20:37:52.987Z,6.76
2023-02-09T20:40:19.826Z,6.44
2023-02-09T20:42:46.679Z,4.83
2023-02-09T20:45:14.507Z,6.04
2023-02-09T20:47:41.330Z,5.95
2023-02-09T20:50:08.291Z,6.82
2023-02-09T20:52:35.056Z,5.15
2023-02-09T20:55:03.306Z,5.51
2023-02-09T20:57:30.054Z,4.64
2023-02-09T20:59:56.876Z,5.21
2023-02-09T21:02:23.719Z,4.11
2023-02-09T21:04:50.810Z,4.18
2023-02-09T21:07:17.586Z,5.12
2023-02-09T21:09:44.349Z,5.80
2023-02-09T21:12:13.324Z,5.49
2023-02-09T21:14:42.844Z,7.73
2023-02-09T21:17:09.725Z,6.38
2023-02-09T21:19:36.463Z,7.47
2023-02-09T21:22:03.250Z,5.72
2023-02-09T21:24:30.121Z,5.67
2023-02-09T21:26:56.898Z,5.44
2023-02-09T21:29:25.088Z,7.01
2023-02-09T21:31:51.853Z,6.92
2023-02-09T21:34:18.676Z,6.28
2023-02-09T21:36:45.528Z,7.11
2023-02-09T21:39:13.150Z,6.61
2023-02-09T21:41:39.983Z,5.42
2023-02-09T21:44:08.365Z,5.19
2023-02-09T21:46:36.557Z,6.65
2023-02-09T21:49:03.492Z,7.30
2023-02-09T21:51:30.301Z,6.15
2023-02-09T21:53:57.425Z,6.86
2023-02-09T21:56:24.194Z,8.77
2023-02-09T21:58:50.910Z,6.14
2023-02-09T22:01:17.932Z,6.69
2023-02-09T22:03:48.096Z,6.86
2023-02-09T22:06:14.943Z,8.12
2023-02-09T22:08:41.736Z,7.08
2023-02-09T22:11:08.549Z,6.72
2023-02-09T22:13:35.670Z,7.12
2023-02-09T22:16:06.826Z,6.57
2023-02-09T22:18:34.109Z,4.91
2023-02-09T22:21:06.013Z,3.65
2023-02-09T22:23:32.898Z,4.47
2023-02-09T22:26:00.333Z,3.66
2023-02-09T22:28:27.310Z,4.00
2023-02-09T22:30:54.310Z,3.80
2023-02-09T22:33:21.666Z,3.45
2023-02-09T22:35:49.145Z,3.70
2023-02-09T22:38:17.514Z,2.89
2023-02-09T22:40:44.220Z,2.81
2023-02-09T22:43:10.985Z,2.38
2023-02-09T22:45:37.716Z,3.11
2023-02-09T22:48:04.836Z,3.08
2023-02-09T22:50:31.650Z,2.71
2023-02-09T22:52:58.498Z,3.02
2023-02-09T22:55:26.703Z,2.87
2023-02-09T22:57:53.421Z,4.10
2023-02-09T23:00:20.368Z,4.74
2023-02-09T23:02:47.090Z,4.10
2023-02-09T23:05:13.810Z,4.25
2023-02-09T23:07:40.557Z,3.23
2023-02-09T23:10:07.412Z,3.01
2023-02-09T23:12:35.541Z,4.13
2023-02-09T23:15:02.309Z,4.00
2023-02-09T23:17:29.038Z,3.97
2023-02-09T23:19:55.813Z,3.13
2023-02-09T23:22:22.555Z,3.10
2023-02-09T23:24:49.255Z,3.09
2023-02-09T23:27:16.086Z,3.99
2023-02-09T23:29:44.300Z,4.20
2023-02-09T23:32:11.047Z,3.54
2023-02-09T23:34:37.781Z,3.51
2023-02-09T23:37:13.302Z,2.50
2023-02-09T23:39:45.689Z,2.29
2023-02-09T23:42:12.430Z,3.04
2023-02-09T23:44:39.149Z,3.21
2023-02-09T23:47:07.318Z,3.17
2023-02-09T23:49:34.089Z,2.81
2023-02-09T23:52:00.853Z,2.14
2023-02-09T23:54:27.715Z,3.11
2023-02-09T23:56:54.411Z,2.72
2023-02-09T23:59:21.367Z,2.63
